Time;durP1;ratioP1;P1;durP2;ratioP2;P2;SDS_P1;SDS_P2;PMS_P1;PMS_P2;Temp;Humidity;BMP_temperature;BMP_pressure;BME280_temperature;BME280_humidity;BME280_pressure;Samples;Min_cycle;Max_cycle;Signal;HPM_P1;HPM_P2
2022/09/16 00:00:51;;;;;;;0.40;0.40;;;25.50;91.80;;;;;;5063209;28;20036;-78
2022/09/16 00:03:19;;;;;;;0.75;0.40;;;25.40;91.50;;;;;;5061539;28;20036;-76
2022/09/16 00:05:49;;;;;;;0.75;0.30;;;25.50;90.60;;;;;;5065433;28;20049;-77
2022/09/16 00:08:17;;;;;;;0.25;0.20;;;25.70;88.10;;;;;;5064719;28;20020;-76
2022/09/16 00:10:44;;;;;;;0.35;0.28;;;25.90;87.20;;;;;;5063303;28;20072;-77
2022/09/16 00:13:13;;;;;;;0.43;0.40;;;25.80;90.80;;;;;;5054716;28;20059;-75
2022/09/16 00:15:45;;;;;;;0.63;0.40;;;26.10;90.00;;;;;;5063863;28;20074;-78
2022/09/16 00:18:13;;;;;;;0.98;0.38;;;26.00;90.80;;;;;;5068867;28;20038;-79
2022/09/16 00:20:49;;;;;;;1.05;0.35;;;26.20;91.60;;;;;;5070008;28;20024;-76
2022/09/16 00:23:17;;;;;;;1.65;0.57;;;26.30;91.10;;;;;;5070042;28;20020;-76
2022/09/16 00:25:49;;;;;;;1.15;0.22;;;26.40;90.20;;;;;;5071547;28;20041;-79
2022/09/16 00:28:17;;;;;;;2.03;0.30;;;26.50;89.80;;;;;;5056559;28;20028;-74
2022/09/16 00:30:45;;;;;;;1.13;0.22;;;26.80;89.80;;;;;;5056974;28;20893;-77
2022/09/16 00:33:12;;;;;;;0.80;0.30;;;27.00;89.90;;;;;;5061605;28;20025;-77
2022/09/16 00:35:40;;;;;;;2.17;0.45;;;27.10;88.70;;;;;;5066286;28;20099;-76
2022/09/16 00:38:07;;;;;;;0.60;0.30;;;27.40;89.30;;;;;;5053818;28;20565;-75
2022/09/16 00:40:35;;;;;;;0.98;0.43;;;27.30;86.80;;;;;;5053715;28;20035;-78
2022/09/16 00:43:02;;;;;;;1.02;0.28;;;27.50;86.40;;;;;;5064713;28;20044;-75
2022/09/16 00:45:34;;;;;;;0.82;0.20;;;27.20;88.10;;;;;;5068482;28;20100;-78
2022/09/16 00:48:09;;;;;;;0.75;0.30;;;27.20;89.20;;;;;;5064795;28;20032;-78
2022/09/16 00:51:01;;;;;;;;;;;27.30;89.50;;;;;;5065550;28;20024;-79
2022/09/16 00:53:43;;;;;;;0.50;0.20;;;27.60;85.00;;;;;;5054113;28;19999;-72
2022/09/16 00:56:13;;;;;;;2.10;0.32;;;27.60;86.80;;;;;;5067719;28;20084;-78
2022/09/16 00:58:52;;;;;;;2.03;0.35;;;27.50;85.80;;;;;;5064501;28;20016;-76
2022/09/16 01:01:21;;;;;;;0.65;0.20;;;27.20;82.20;;;;;;5067376;28;20205;-77
2022/09/16 01:03:59;;;;;;;0.40;0.10;;;27.00;80.70;;;;;;5068887;28;20082;-81
2022/09/16 01:06:27;;;;;;;0.50;0.40;;;26.90;80.50;;;;;;5057664;28;20352;-78
2022/09/16 01:08:56;;;;;;;4.57;0.50;;;26.80;79.70;;;;;;5067673;28;20056;-80
2022/09/16 01:11:31;;;;;;;1.05;0.30;;;27.10;82.60;;;;;;5055607;28;20028;-80
2022/09/16 01:14:51;;;;;;;1.02;0.20;;;27.30;81.20;;;;;;5051649;28;20029;-76
2022/09/16 01:17:10;;;;;;;0.68;0.20;;;27.30;79.20;;;;;;5060998;28;20029;-78
2022/09/16 01:19:57;;;;;;;0.73;0.20;;;25.90;75.30;;;;;;5078987;28;20041;-75
2022/09/16 01:22:55;;;;;;;1.75;0.32;;;24.60;77.20;;;;;;5075376;28;20028;-76
2022/09/16 01:25:30;;;;;;;0.95;0.22;;;25.00;79.30;;;;;;5073885;28;20072;-78
2022/09/16 01:28:12;;;;;;;0.20;0.20;;;25.00;75.80;;;;;;5057163;28;20029;-76
2022/09/16 01:31:00;;;;;;;1.92;0.32;;;24.50;77.70;;;;;;5062453;28;20545;-77
2022/09/16 01:33:31;;;;;;;1.67;0.60;;;24.10;78.40;;;;;;5062111;28;20423;-78
2022/09/16 01:36:30;;;;;;;0.93;0.32;;;23.90;77.60;;;;;;5068756;28;20025;-79
2022/09/16 01:39:18;;;;;;;1.70;0.40;;;24.70;79.90;;;;;;5061603;28;20040;-77
2022/09/16 01:41:52;;;;;;;1.55;0.30;;;25.50;74.80;;;;;;5064444;28;20043;-74
2022/09/16 01:44:57;;;;;;;0.85;0.30;;;26.00;71.20;;;;;;5065735;28;20025;-79
2022/09/16 01:48:01;;;;;;;0.98;0.32;;;25.70;73.30;;;;;;5027460;28;20045;-78
2022/09/16 01:50:50;;;;;;;0.43;0.40;;;26.30;74.80;;;;;;5058149;28;20052;-78
2022/09/16 01:53:22;;;;;;;2.13;0.30;;;27.00;72.50;;;;;;5060207;28;20029;-81
2022/09/16 01:56:19;;;;;;;0.88;0.30;;;27.20;70.40;;;;;;5072226;28;20028;-78
2022/09/16 01:58:53;;;;;;;0.43;0.20;;;27.00;68.70;;;;;;5055008;28;20044;-77
2022/09/16 02:01:39;;;;;;;0.95;0.32;;;26.80;67.00;;;;;;5058414;28;20132;-76
2022/09/16 02:04:15;;;;;;;2.97;0.10;;;26.60;67.60;;;;;;5054996;28;20028;-79
2022/09/16 02:06:45;;;;;;;1.65;0.30;;;26.40;65.60;;;;;;5056928;28;20210;-79
2022/09/16 02:09:40;;;;;;;2.20;0.20;;;26.70;69.00;;;;;;5061560;28;20044;-79
2022/09/16 02:12:13;;;;;;;0.30;0.10;;;27.10;66.90;;;;;;5054062;28;20032;-75
2022/09/16 02:14:45;;;;;;;0.65;0.13;;;27.10;65.50;;;;;;5063505;28;20143;-74
2022/09/16 02:17:15;;;;;;;2.75;0.22;;;27.20;67.40;;;;;;5060128;28;20356;-74
2022/09/16 02:20:07;;;;;;;2.50;0.20;;;26.90;65.50;;;;;;5069156;28;20039;-77
2022/09/16 02:22:44;;;;;;;2.40;0.43;;;27.20;67.10;;;;;;5067821;28;20032;-74
2022/09/16 02:25:14;;;;;;;2.70;0.20;;;27.30;65.50;;;;;;5060307;28;20118;-73
2022/09/16 02:27:43;;;;;;;0.40;0.10;;;26.90;65.80;;;;;;5062071;28;20028;-75
2022/09/16 02:30:16;;;;;;;0.25;0.15;;;27.00;65.50;;;;;;5058225;28;20041;-72
2022/09/16 02:32:48;;;;;;;0.82;0.32;;;27.30;66.60;;;;;;5053147;28;20699;-78
2022/09/16 02:35:18;;;;;;;0.52;0.20;;;27.50;65.50;;;;;;5055786;28;20101;-74
2022/09/16 02:37:51;;;;;;;0.70;0.10;;;27.40;64.40;;;;;;5055687;28;20093;-75
2022/09/16 02:40:30;;;;;;;2.78;0.30;;;27.60;66.60;;;;;;5053854;28;20050;-76
2022/09/16 02:42:58;;;;;;;1.83;0.30;;;28.10;64.80;;;;;;5051578;28;20028;-74
2022/09/16 02:45:46;;;;;;;0.30;0.20;;;28.00;64.40;;;;;;5063361;28;20036;-75
2022/09/16 02:48:42;;;;;;;0.10;0.10;;;28.20;65.90;;;;;;5058461;28;20494;-76
2022/09/16 02:51:24;;;;;;;0.98;0.10;;;27.80;65.00;;;;;;5055482;28;20033;-74
2022/09/16 02:54:15;;;;;;;1.35;0.35;;;27.80;64.00;;;;;;5052632;28;20059;-75
2022/09/16 02:56:43;;;;;;;0.55;0.20;;;27.70;66.40;;;;;;5053954;28;20036;-73
2022/09/16 02:59:12;;;;;;;2.03;0.28;;;28.10;68.70;;;;;;5061041;28;20106;-75
2022/09/16 03:01:45;;;;;;;1.33;0.20;;;28.40;68.80;;;;;;5056749;28;20032;-75
2022/09/16 03:04:15;;;;;;;0.47;0.10;;;28.40;66.80;;;;;;5063410;28;20106;-77
2022/09/16 03:06:43;;;;;;;0.85;0.20;;;28.80;69.90;;;;;;5063362;28;21348;-75
2022/09/16 03:09:13;;;;;;;0.90;0.35;;;29.00;68.40;;;;;;5066309;28;20032;-69
2022/09/16 03:12:08;;;;;;;1.00;0.28;;;29.20;67.60;;;;;;5062440;28;20039;-75
2022/09/16 03:14:55;;;;;;;0.50;0.10;;;29.30;66.00;;;;;;5061159;28;20108;-76
2022/09/16 03:17:45;;;;;;;0.70;0.40;;;29.10;64.30;;;;;;5063109;28;20105;-75
2022/09/16 03:20:48;;;;;;;1.10;0.15;;;29.10;65.10;;;;;;5066142;28;20035;-75
2022/09/16 03:23:37;;;;;;;1.48;0.20;;;28.90;66.00;;;;;;5050282;28;20107;-73
2022/09/16 03:26:45;;;;;;;0.98;0.20;;;29.00;65.30;;;;;;5066218;28;20498;-76
2022/09/16 03:29:19;;;;;;;0.43;0.35;;;29.00;64.30;;;;;;5059584;28;20024;-74
2022/09/16 03:32:19;;;;;;;2.03;0.20;;;28.70;63.70;;;;;;5066565;28;20088;-74
2022/09/16 03:34:53;;;;;;;3.95;1.13;;;28.80;63.50;;;;;;5053153;28;20033;-76
2022/09/16 03:37:23;;;;;;;1.13;0.32;;;28.70;63.40;;;;;;5069787;28;20021;-78
2022/09/16 03:39:57;;;;;;;1.55;0.30;;;28.50;61.60;;;;;;5070411;28;21692;-82
2022/09/16 03:42:25;;;;;;;1.15;0.35;;;28.40;62.80;;;;;;5072034;28;20024;-79
2022/09/16 03:44:52;;;;;;;1.65;0.43;;;28.20;64.10;;;;;;5072560;28;20115;-78
2022/09/16 03:47:19;;;;;;;1.42;0.28;;;27.70;63.00;;;;;;5063248;28;20024;-75
2022/09/16 03:49:47;;;;;;;0.75;0.38;;;27.70;64.30;;;;;;5066283;28;20363;-74
2022/09/16 03:52:17;;;;;;;3.33;0.30;;;27.90;63.30;;;;;;5061508;28;20025;-74
2022/09/16 03:54:45;;;;;;;1.15;0.17;;;28.00;64.10;;;;;;5065541;28;20024;-75
2022/09/16 03:57:12;;;;;;;1.50;0.30;;;27.90;62.80;;;;;;5079906;28;20029;-74
2022/09/16 03:59:40;;;;;;;1.23;0.30;;;27.90;64.40;;;;;;5071014;28;20031;-74
2022/09/16 04:02:08;;;;;;;1.52;0.20;;;27.80;62.90;;;;;;5064769;28;20043;-74
2022/09/16 04:04:35;;;;;;;1.45;0.30;;;27.80;64.20;;;;;;5064083;28;20052;-74
2022/09/16 04:07:02;;;;;;;0.25;0.20;;;27.90;65.10;;;;;;5062126;28;20033;-75
2022/09/16 04:09:30;;;;;;;1.52;0.10;;;28.00;64.70;;;;;;5068042;28;20102;-74
2022/09/16 04:11:57;;;;;;;1.58;0.20;;;27.90;62.20;;;;;;5070893;28;20749;-75
2022/09/16 04:14:25;;;;;;;0.40;0.17;;;27.50;62.20;;;;;;5064153;28;20051;-73
2022/09/16 04:16:53;;;;;;;1.83;0.30;;;27.30;62.30;;;;;;5053039;28;20101;-74
2022/09/16 04:19:21;;;;;;;2.35;0.32;;;27.20;62.70;;;;;;5067197;28;20020;-75
2022/09/16 04:21:49;;;;;;;1.38;0.30;;;26.90;63.00;;;;;;5027799;28;20255;-74
2022/09/16 04:24:16;;;;;;;0.60;0.20;;;26.80;63.00;;;;;;5050007;28;20360;-74
2022/09/16 04:26:44;;;;;;;1.38;0.40;;;26.80;63.40;;;;;;5056518;28;20048;-74
2022/09/16 04:29:11;;;;;;;0.90;0.17;;;26.80;64.00;;;;;;5057097;28;20119;-75
2022/09/16 04:31:39;;;;;;;1.38;0.22;;;27.00;64.00;;;;;;5059087;28;20501;-77
2022/09/16 04:34:06;;;;;;;2.33;0.65;;;26.90;63.30;;;;;;5058095;28;20025;-76
2022/09/16 04:36:33;;;;;;;2.35;0.28;;;26.80;64.40;;;;;;5067178;28;20036;-75
2022/09/16 04:39:01;;;;;;;1.83;0.55;;;26.80;64.20;;;;;;5085393;28;20395;-75
2022/09/16 04:41:28;;;;;;;0.55;0.20;;;26.40;63.30;;;;;;5064687;28;20036;-74
2022/09/16 04:44:00;;;;;;;5.22;0.10;;;26.30;63.40;;;;;;5060075;28;20040;-75
2022/09/16 04:46:29;;;;;;;1.27;0.25;;;26.10;63.20;;;;;;5060194;28;20033;-76
2022/09/16 04:48:57;;;;;;;0.60;0.10;;;25.90;63.50;;;;;;5068268;28;20027;-77
2022/09/16 04:51:26;;;;;;;0.85;0.30;;;26.10;62.60;;;;;;5065227;28;20036;-77
2022/09/16 04:53:54;;;;;;;0.82;0.30;;;26.20;63.20;;;;;;5091396;28;20056;-76
2022/09/16 04:56:25;;;;;;;1.90;0.52;;;26.30;63.30;;;;;;5060412;28;20024;-76
2022/09/16 04:58:55;;;;;;;2.10;0.20;;;26.30;63.00;;;;;;5070081;28;20559;-77
2022/09/16 05:01:25;;;;;;;1.30;0.30;;;25.80;64.00;;;;;;5063650;28;20059;-75
2022/09/16 05:03:56;;;;;;;1.27;0.25;;;25.50;64.60;;;;;;5059530;28;20468;-75
2022/09/16 05:06:29;;;;;;;1.42;0.30;;;25.30;64.80;;;;;;5085839;28;20039;-76
2022/09/16 05:08:58;;;;;;;1.10;0.30;;;25.00;64.80;;;;;;5065196;28;20479;-75
2022/09/16 05:11:28;;;;;;;2.85;0.20;;;25.00;65.80;;;;;;5059020;28;20078;-76
2022/09/16 05:13:58;;;;;;;1.77;0.40;;;25.20;64.50;;;;;;5052403;28;20048;-74
2022/09/16 05:16:26;;;;;;;1.55;0.32;;;25.30;65.00;;;;;;5058811;28;20033;-74
2022/09/16 05:18:56;;;;;;;2.33;0.20;;;25.50;65.80;;;;;;5055388;28;20052;-75
2022/09/16 05:21:26;;;;;;;1.98;0.30;;;25.50;64.80;;;;;;5056017;28;20382;-75
2022/09/16 05:23:54;;;;;;;2.72;0.20;;;25.40;64.80;;;;;;5055432;28;20045;-75
2022/09/16 05:26:28;;;;;;;3.03;0.30;;;25.30;66.40;;;;;;5055322;28;20051;-74
2022/09/16 05:28:56;;;;;;;0.90;0.10;;;25.20;65.20;;;;;;5054975;28;20051;-75
2022/09/16 05:31:27;;;;;;;2.25;0.38;;;25.30;66.00;;;;;;5054530;28;20070;-73
2022/09/16 05:34:03;;;;;;;1.33;0.22;;;25.40;65.00;;;;;;5058802;28;20040;-74
2022/09/16 05:36:33;;;;;;;1.08;0.28;;;25.40;66.50;;;;;;5069517;28;20028;-75
2022/09/16 05:39:02;;;;;;;1.88;0.30;;;25.40;65.80;;;;;;5066402;28;20456;-75
2022/09/16 05:41:29;;;;;;;2.92;0.45;;;25.30;65.70;;;;;;5074390;28;20025;-76
2022/09/16 05:44:00;;;;;;;0.45;0.40;;;24.80;64.20;;;;;;5069540;28;20502;-77
2022/09/16 05:46:28;;;;;;;0.95;0.30;;;24.60;66.30;;;;;;5068674;28;20039;-77
2022/09/16 05:48:56;;;;;;;0.35;0.30;;;24.70;65.50;;;;;;5067830;28;20020;-76
2022/09/16 05:51:25;;;;;;;0.75;0.20;;;24.80;65.60;;;;;;5052997;28;20610;-74
2022/09/16 05:53:54;;;;;;;3.65;0.45;;;24.80;64.70;;;;;;5070970;28;20031;-75
2022/09/16 05:56:24;;;;;;;0.47;0.20;;;24.70;65.20;;;;;;5076751;28;20024;-75
2022/09/16 05:58:53;;;;;;;1.60;0.20;;;24.60;65.70;;;;;;5065021;28;20024;-74
2022/09/16 06:01:26;;;;;;;0.88;0.47;;;24.60;64.80;;;;;;5086492;28;20028;-74
2022/09/16 06:03:56;;;;;;;0.75;0.30;;;24.60;64.50;;;;;;5083654;28;20024;-75
2022/09/16 06:06:32;;;;;;;2.55;0.35;;;24.50;64.70;;;;;;5069647;28;20024;-76
2022/09/16 06:09:00;;;;;;;;;;;24.30;65.20;;;;;;5064012;28;20033;-75
2022/09/16 06:11:28;;;;;;;3.22;0.28;;;24.20;65.50;;;;;;5068697;28;20274;-75
2022/09/16 06:14:02;;;;;;;0.10;0.10;;;24.20;65.80;;;;;;5070291;28;20031;-75
2022/09/16 06:16:33;;;;;;;1.70;0.20;;;24.20;65.10;;;;;;5070925;28;20087;-75
2022/09/16 06:19:02;;;;;;;0.82;0.10;;;24.30;65.70;;;;;;5051368;28;20495;-74
2022/09/16 06:21:30;;;;;;;0.55;0.40;;;24.40;65.20;;;;;;5052975;28;20024;-74
2022/09/16 06:23:58;;;;;;;0.70;0.20;;;24.40;65.00;;;;;;5067863;28;20037;-74
2022/09/16 06:26:27;;;;;;;0.60;0.10;;;24.30;65.80;;;;;;5062451;28;20040;-75
2022/09/16 06:28:55;;;;;;;2.50;0.20;;;24.10;64.20;;;;;;5060284;28;20416;-74
2022/09/16 06:31:25;;;;;;;2.03;0.50;;;23.80;64.70;;;;;;5071412;28;20048;-74
2022/09/16 06:33:53;;;;;;;3.13;0.30;;;23.70;65.00;;;;;;5066665;28;20394;-77
2022/09/16 06:36:27;;;;;;;2.38;0.30;;;23.60;65.50;;;;;;5065844;28;20020;-75
2022/09/16 06:38:54;;;;;;;2.50;0.75;;;23.50;65.70;;;;;;5081155;28;20031;-74
2022/09/16 06:41:22;;;;;;;1.48;0.52;;;23.50;65.70;;;;;;5059854;28;20517;-74
2022/09/16 06:43:50;;;;;;;1.83;0.50;;;23.50;66.10;;;;;;5068535;28;20028;-76
2022/09/16 06:46:27;;;;;;;1.33;0.75;;;23.40;66.30;;;;;;5070314;28;20032;-77
2022/09/16 06:48:57;;;;;;;0.70;0.10;;;23.20;65.70;;;;;;5066272;28;20096;-74
2022/09/16 06:51:26;;;;;;;0.93;0.30;;;23.20;66.40;;;;;;5063236;28;20058;-75
2022/09/16 06:53:58;;;;;;;1.48;0.10;;;23.10;66.80;;;;;;5066673;28;20071;-75
2022/09/16 06:56:26;;;;;;;2.80;0.47;;;23.10;67.10;;;;;;5068199;28;20021;-77
2022/09/16 06:58:54;;;;;;;3.00;0.50;;;23.10;66.30;;;;;;5043843;28;20032;-77
2022/09/16 07:01:27;;;;;;;2.55;0.73;;;23.10;66.90;;;;;;5053453;28;20371;-76
2022/09/16 07:03:56;;;;;;;0.88;0.20;;;23.00;67.20;;;;;;5063664;28;20063;-77
2022/09/16 07:06:26;;;;;;;1.85;0.45;;;23.00;66.80;;;;;;5055519;28;20471;-80
2022/09/16 07:08:54;;;;;;;3.92;0.57;;;22.90;68.00;;;;;;5057431;28;20024;-76
2022/09/16 07:11:23;;;;;;;0.93;0.28;;;22.80;67.70;;;;;;5060013;28;20037;-76
2022/09/16 07:13:51;;;;;;;1.88;0.38;;;22.70;67.90;;;;;;5054447;28;20039;-77
2022/09/16 07:16:23;;;;;;;1.30;0.30;;;22.60;68.40;;;;;;5055012;28;20040;-79
2022/09/16 07:18:55;;;;;;;2.05;0.60;;;22.50;69.10;;;;;;5056643;28;20035;-78
2022/09/16 07:21:27;;;;;;;2.75;0.52;;;22.30;69.20;;;;;;5057996;28;20033;-75
2022/09/16 07:23:59;;;;;;;1.75;0.30;;;22.20;69.00;;;;;;5055582;28;20031;-75
2022/09/16 07:26:32;;;;;;;1.60;0.55;;;22.10;69.50;;;;;;5052139;28;20476;-78
2022/09/16 07:29:01;;;;;;;2.78;0.57;;;22.00;70.30;;;;;;5054143;28;20043;-77
2022/09/16 07:31:31;;;;;;;1.05;0.20;;;21.90;70.20;;;;;;5049177;28;20056;-76
2022/09/16 07:34:03;;;;;;;2.15;0.73;;;21.80;70.20;;;;;;5052499;28;20113;-77
2022/09/16 07:36:36;;;;;;;2.72;0.50;;;21.60;70.70;;;;;;5052023;28;20029;-78
2022/09/16 07:39:04;;;;;;;2.00;0.95;;;21.50;71.60;;;;;;5053944;28;20071;-81
2022/09/16 07:41:37;;;;;;;3.33;0.50;;;21.30;71.70;;;;;;5049900;28;20040;-78
2022/09/16 07:44:06;;;;;;;1.95;0.63;;;21.20;71.70;;;;;;5053051;28;20377;-79
2022/09/16 07:46:38;;;;;;;1.63;0.32;;;21.10;72.50;;;;;;5048037;28;20043;-79
2022/09/16 07:49:08;;;;;;;0.90;0.50;;;21.00;72.90;;;;;;5052494;28;20483;-77
2022/09/16 07:51:36;;;;;;;3.90;0.98;;;20.90;72.90;;;;;;5053807;28;20028;-76
2022/09/16 07:54:09;;;;;;;4.13;1.08;;;20.70;73.80;;;;;;5055077;28;20032;-78
2022/09/16 07:56:38;;;;;;;1.25;0.68;;;20.60;74.00;;;;;;5057527;28;20037;-83
2022/09/16 07:59:11;;;;;;;1.63;0.70;;;20.50;75.30;;;;;;5054042;28;20029;-82
2022/09/16 08:01:38;;;;;;;3.67;0.70;;;20.40;76.20;;;;;;5053833;28;20487;-83
2022/09/16 08:04:06;;;;;;;1.20;0.55;;;20.30;77.00;;;;;;5053481;28;20021;-78
2022/09/16 08:06:36;;;;;;;2.00;0.60;;;20.20;76.40;;;;;;5054975;28;20051;-81
2022/09/16 08:09:04;;;;;;;2.42;0.47;;;20.10;76.80;;;;;;5055686;28;20017;-82
2022/09/16 08:11:32;;;;;;;0.60;0.38;;;20.10;75.20;;;;;;5052765;28;20028;-80
2022/09/16 08:14:00;;;;;;;2.08;0.50;;;20.20;74.90;;;;;;5052766;28;20046;-81
2022/09/16 08:16:27;;;;;;;1.95;0.77;;;20.30;74.90;;;;;;5053163;28;20036;-75
2022/09/16 08:18:57;;;;;;;2.25;1.05;;;20.30;75.50;;;;;;5057250;28;20484;-76
2022/09/16 08:21:27;;;;;;;1.90;0.90;;;20.30;75.20;;;;;;5067851;28;20024;-77
2022/09/16 08:23:55;;;;;;;1.98;0.50;;;20.30;75.40;;;;;;5059217;28;20104;-76
2022/09/16 08:26:24;;;;;;;4.57;0.93;;;20.30;75.50;;;;;;5069295;28;20071;-75
2022/09/16 08:28:51;;;;;;;3.42;0.95;;;20.20;75.20;;;;;;5058668;28;20570;-76
2022/09/16 08:31:19;;;;;;;2.17;1.02;;;20.20;75.60;;;;;;5060704;28;20831;-74
2022/09/16 08:33:47;;;;;;;1.90;0.57;;;20.20;76.20;;;;;;5063392;28;20024;-75
2022/09/16 08:36:20;;;;;;;2.08;0.52;;;20.10;76.30;;;;;;5077782;28;20028;-74
2022/09/16 08:38:49;;;;;;;3.13;0.95;;;20.00;76.40;;;;;;5085446;28;20028;-78
2022/09/16 08:41:26;;;;;;;2.47;1.27;;;19.90;76.60;;;;;;5075489;28;20044;-76
2022/09/16 08:44:37;;;;;;;2.78;1.10;;;19.80;76.40;;;;;;5071855;28;20028;-77
2022/09/16 08:47:41;;;;;;;3.85;0.82;;;19.80;76.50;;;;;;5058600;28;20043;-76
2022/09/16 08:50:17;;;;;;;5.63;1.88;;;19.70;76.90;;;;;;5073006;28;20063;-80
2022/09/16 08:52:46;;;;;;;3.47;1.10;;;19.60;77.50;;;;;;5062283;28;20036;-78
2022/09/16 08:55:43;;;;;;;3.20;1.20;;;19.50;78.10;;;;;;5063977;28;20028;-77
2022/09/16 08:58:19;;;;;;;3.10;1.60;;;19.40;78.60;;;;;;5050685;28;20498;-76
2022/09/16 09:00:54;;;;;;;2.08;0.90;;;19.30;79.20;;;;;;5066742;28;20032;-75
2022/09/16 09:03:30;;;;;;;3.45;0.90;;;19.20;79.50;;;;;;5065033;28;20033;-75
2022/09/16 09:05:59;;;;;;;1.95;1.30;;;19.10;79.80;;;;;;5064926;28;20120;-76
2022/09/16 09:08:33;;;;;;;3.85;1.20;;;19.10;80.00;;;;;;5066594;28;20031;-77
2022/09/16 09:11:57;;;;;;;4.38;1.13;;;19.00;79.80;;;;;;5059861;28;20510;-77
2022/09/16 09:14:51;;;;;;;4.55;1.45;;;18.90;79.90;;;;;;4976157;28;20061;-76
2022/09/16 09:17:54;;;;;;;1.85;0.95;;;18.90;80.00;;;;;;4975510;28;20031;-79
2022/09/16 09:20:44;;;;;;;3.20;1.08;;;18.80;79.90;;;;;;5048924;28;20383;-77
2022/09/16 09:23:27;;;;;;;2.38;1.10;;;18.80;78.80;;;;;;5052420;28;20090;-76
2022/09/16 09:26:32;;;;;;;2.45;0.90;;;18.90;77.90;;;;;;5052964;28;20043;-75
2022/09/16 09:29:14;;;;;;;1.33;0.40;;;18.90;77.50;;;;;;5045622;28;20175;-75
2022/09/16 09:32:11;;;;;;;0.98;0.32;;;18.90;77.30;;;;;;5058526;28;20088;-74
2022/09/16 09:35:07;;;;;;;;;;;18.90;77.70;;;;;;5050782;28;20021;-75
2022/09/16 09:37:50;;;;;;;3.88;0.40;;;18.90;77.90;;;;;;5039909;28;19916;-75
2022/09/16 09:40:38;;;;;;;3.47;0.50;;;18.70;78.20;;;;;;5061991;28;20430;-75
2022/09/16 09:43:08;;;;;;;0.77;0.30;;;18.70;78.50;;;;;;5065175;28;20025;-76
2022/09/16 09:46:03;;;;;;;1.38;0.47;;;18.60;79.10;;;;;;5061417;28;20075;-74
2022/09/16 09:48:45;;;;;;;2.15;0.68;;;18.50;79.40;;;;;;5058778;28;20037;-75
2022/09/16 09:51:33;;;;;;;1.10;0.43;;;18.50;79.90;;;;;;5055252;28;20463;-75
2022/09/16 09:54:11;;;;;;;1.95;0.57;;;18.40;80.50;;;;;;5058108;28;20781;-76
2022/09/16 09:56:44;;;;;;;0.70;0.40;;;18.40;80.90;;;;;;5062610;28;20037;-74
2022/09/16 09:59:30;;;;;;;5.57;0.75;;;18.40;81.30;;;;;;5066863;28;20410;-74
2022/09/16 10:01:57;;;;;;;;;;;18.30;81.80;;;;;;5064253;28;20020;-73
2022/09/16 10:04:25;;;;;;;2.38;1.20;;;18.30;81.80;;;;;;5066364;28;19912;-75
2022/09/16 10:06:56;;;;;;;1.92;0.75;;;18.20;82.00;;;;;;5066868;28;20043;-74
2022/09/16 10:09:24;;;;;;;3.30;0.85;;;18.20;82.40;;;;;;5055368;28;20032;-74
2022/09/16 10:11:56;;;;;;;3.22;1.02;;;18.10;82.60;;;;;;5055985;28;20651;-74
2022/09/16 10:14:33;;;;;;;3.30;0.80;;;18.00;83.20;;;;;;5054740;28;20029;-75
2022/09/16 10:17:03;;;;;;;4.47;1.08;;;18.00;83.20;;;;;;5067308;28;20502;-76
2022/09/16 10:19:36;;;;;;;3.15;1.30;;;17.90;83.60;;;;;;5067167;28;20032;-75
2022/09/16 10:22:19;;;;;;;3.22;0.70;;;17.80;84.30;;;;;;5063576;28;20410;-74
2022/09/16 10:24:54;;;;;;;3.05;0.90;;;17.70;84.40;;;;;;5060956;28;20097;-74
2022/09/16 10:27:34;;;;;;;2.10;0.70;;;17.60;84.20;;;;;;5066161;28;20036;-74
2022/09/16 10:30:20;;;;;;;1.77;0.50;;;17.60;84.40;;;;;;5056063;28;20129;-74
2022/09/16 10:33:02;;;;;;;3.40;0.50;;;17.60;84.00;;;;;;5058296;28;20151;-75
2022/09/16 10:35:33;;;;;;;4.68;1.35;;;17.60;83.90;;;;;;5069669;28;20060;-74
2022/09/16 10:38:21;;;;;;;4.25;0.50;;;17.60;83.70;;;;;;5076493;28;20036;-74
2022/09/16 10:41:03;;;;;;;3.85;1.27;;;17.60;83.60;;;;;;5065040;28;20039;-74
2022/09/16 10:43:31;;;;;;;2.10;0.85;;;17.60;83.70;;;;;;5064680;28;20482;-75
2022/09/16 10:45:59;;;;;;;3.53;0.43;;;17.60;83.70;;;;;;5065909;28;20053;-75
2022/09/16 10:48:30;;;;;;;2.45;0.60;;;17.60;83.60;;;;;;5065181;28;20047;-72
2022/09/16 10:50:58;;;;;;;1.52;0.32;;;17.60;83.40;;;;;;5062785;28;20029;-73
2022/09/16 10:53:35;;;;;;;3.58;0.70;;;17.60;83.50;;;;;;5056254;28;20029;-73
2022/09/16 10:56:16;;;;;;;2.30;0.80;;;17.60;83.60;;;;;;5051472;28;20031;-75
2022/09/16 10:58:43;;;;;;;3.10;0.63;;;17.50;83.70;;;;;;5065211;28;20055;-74
2022/09/16 11:01:29;;;;;;;1.63;0.70;;;17.50;84.00;;;;;;5057492;28;20033;-74
2022/09/16 11:04:13;;;;;;;3.30;0.60;;;17.40;84.40;;;;;;5064708;28;20032;-75
2022/09/16 11:06:56;;;;;;;2.50;0.77;;;17.40;84.10;;;;;;5057479;28;20387;-74
2022/09/16 11:09:40;;;;;;;1.02;0.60;;;17.40;84.70;;;;;;5062921;28;20495;-74
2022/09/16 11:12:21;;;;;;;6.43;0.50;;;17.30;85.10;;;;;;5071533;28;20029;-75
2022/09/16 11:15:05;;;;;;;1.95;0.85;;;17.20;85.40;;;;;;5075733;28;20051;-75
2022/09/16 11:17:53;;;;;;;1.20;0.47;;;17.10;85.90;;;;;;5059497;28;20124;-75
2022/09/16 11:20:50;;;;;;;2.88;0.68;;;17.00;86.60;;;;;;5059917;28;20079;-75
2022/09/16 11:23:17;;;;;;;;;;;16.80;86.30;;;;;;5057534;28;20124;-75
2022/09/16 11:25:47;;;;;;;2.75;0.70;;;16.80;87.20;;;;;;5070711;28;20389;-75
2022/09/16 11:28:33;;;;;;;3.20;0.60;;;16.70;87.70;;;;;;5058522;28;20495;-73
2022/09/16 11:31:06;;;;;;;1.50;0.70;;;16.70;87.40;;;;;;5055155;28;20037;-74
2022/09/16 11:34:19;;;;;;;4.45;0.68;;;16.70;87.70;;;;;;5070215;28;20119;-74
2022/09/16 11:37:34;;;;;;;3.10;0.70;;;16.60;88.40;;;;;;5055651;28;20675;-73
2022/09/16 11:40:33;;;;;;;1.42;0.70;;;16.60;89.80;;;;;;5017633;28;20045;-74
2022/09/16 11:43:21;;;;;;;1.92;0.55;;;16.50;89.40;;;;;;5044279;28;20044;-74
2022/09/16 11:46:30;;;;;;;2.38;0.70;;;16.40;89.40;;;;;;5063206;28;20039;-75
2022/09/16 11:49:06;;;;;;;5.50;1.10;;;16.40;89.50;;;;;;5062583;28;20044;-73
2022/09/16 11:51:48;;;;;;;2.50;0.82;;;16.30;90.10;;;;;;5056979;28;20032;-74
2022/09/16 11:54:50;;;;;;;3.22;1.40;;;16.30;89.80;;;;;;5067804;28;20035;-75
2022/09/16 11:57:25;;;;;;;2.53;1.48;;;16.20;90.20;;;;;;5049209;28;20060;-75
2022/09/16 12:00:03;;;;;;;1.40;0.90;;;16.20;90.50;;;;;;5071616;28;20487;-75
2022/09/16 12:02:36;;;;;;;1.42;0.75;;;16.10;90.70;;;;;;5066694;28;20024;-75
2022/09/16 12:05:42;;;;;;;1.60;0.50;;;16.00;90.10;;;;;;5070663;28;20044;-76
2022/09/16 12:08:58;;;;;;;5.07;1.35;;;16.10;90.10;;;;;;5071377;28;20036;-75
2022/09/16 12:11:35;;;;;;;2.85;0.77;;;16.10;90.00;;;;;;4988273;28;20037;-75
2022/09/16 12:14:27;;;;;;;1.52;0.38;;;16.20;89.50;;;;;;5058756;28;20095;-74
2022/09/16 12:17:01;;;;;;;1.05;0.30;;;16.20;89.40;;;;;;5066525;28;20055;-76
2022/09/16 12:19:31;;;;;;;1.33;0.50;;;16.30;88.70;;;;;;5062928;28;20157;-75
2022/09/16 12:22:21;;;;;;;1.02;0.30;;;16.50;88.20;;;;;;5065350;28;20495;-74
2022/09/16 12:25:02;;;;;;;5.63;1.63;;;16.50;88.20;;;;;;5068088;28;20068;-73
2022/09/16 12:27:48;;;;;;;0.93;0.30;;;16.60;88.00;;;;;;5057137;28;20036;-74
2022/09/16 12:30:26;;;;;;;1.33;0.40;;;16.60;88.10;;;;;;5055009;28;20037;-74
2022/09/16 12:33:12;;;;;;;1.80;0.40;;;16.50;88.20;;;;;;5067340;28;20068;-73
2022/09/16 12:35:59;;;;;;;2.08;0.38;;;16.50;88.50;;;;;;5054877;28;20444;-75
2022/09/16 12:38:26;;;;;;;2.80;0.60;;;16.40;88.40;;;;;;5054336;28;20052;-74
2022/09/16 12:41:20;;;;;;;1.55;0.73;;;16.40;88.80;;;;;;5066291;28;20043;-73
2022/09/16 12:44:06;;;;;;;2.45;0.50;;;16.40;88.50;;;;;;5066606;28;20027;-73
2022/09/16 12:47:04;;;;;;;2.95;0.45;;;16.40;88.70;;;;;;5073813;28;20752;-74
2022/09/16 12:49:52;;;;;;;2.38;0.40;;;16.30;88.90;;;;;;5070091;28;20035;-75
2022/09/16 12:52:41;;;;;;;1.52;0.50;;;16.30;89.30;;;;;;5060105;28;20032;-74
2022/09/16 12:55:17;;;;;;;3.40;0.60;;;16.20;89.10;;;;;;5066802;28;20036;-73
2022/09/16 12:58:00;;;;;;;2.85;0.65;;;16.20;89.20;;;;;;5063150;28;20509;-73
2022/09/16 13:00:59;;;;;;;1.95;0.57;;;16.20;89.10;;;;;;5056746;28;20056;-74
2022/09/16 13:03:30;;;;;;;1.33;0.40;;;16.10;89.30;;;;;;5038834;28;20037;-74
2022/09/16 13:06:04;;;;;;;1.45;0.30;;;16.20;89.50;;;;;;5057507;28;20032;-74
2022/09/16 13:08:33;;;;;;;0.88;0.40;;;16.10;89.60;;;;;;5069502;28;20103;-73
2022/09/16 13:11:07;;;;;;;3.47;0.35;;;16.20;89.10;;;;;;5062454;28;20024;-75
2022/09/16 13:13:42;;;;;;;1.60;0.63;;;16.20;89.30;;;;;;5062628;28;20100;-74
2022/09/16 13:16:09;;;;;;;5.78;0.50;;;16.20;89.80;;;;;;5068712;28;20093;-73
2022/09/16 13:18:40;;;;;;;2.95;0.50;;;16.20;89.80;;;;;;5057234;28;20029;-76
2022/09/16 13:21:46;;;;;;;1.08;0.30;;;16.10;89.70;;;;;;5061986;28;20372;-73
2022/09/16 13:24:34;;;;;;;3.58;0.70;;;16.10;89.60;;;;;;5061654;28;20030;-74
2022/09/16 13:27:14;;;;;;;3.17;0.30;;;16.10;90.00;;;;;;5067576;28;20040;-72
2022/09/16 13:29:45;;;;;;;1.98;0.40;;;16.10;90.30;;;;;;5065700;28;20039;-74
2022/09/16 13:32:57;;;;;;;0.80;0.35;;;16.00;90.20;;;;;;5066738;28;20037;-73
2022/09/16 13:35:37;;;;;;;3.30;0.70;;;16.10;90.30;;;;;;5037327;28;20136;-74